createdAt,value
2022-08-05T00:00:00.317Z,38.28
2022-08-05T00:02:07.662Z,37.72
2022-08-05T00:04:10.854Z,37.94
2022-08-05T00:06:27.809Z,36.90
2022-08-05T00:08:36.318Z,37.41
2022-08-05T00:10:39.233Z,37.32
2022-08-05T00:12:55.671Z,37.48
2022-08-05T00:15:53.915Z,38.53
2022-08-05T00:17:24.001Z,38.46
2022-08-05T00:19:33.460Z,38.05
2022-08-05T00:21:36.861Z,38.46
2022-08-05T00:23:45.798Z,38.98
2022-08-05T00:25:49.794Z,40.64
2022-08-05T00:27:56.769Z,39.55
2022-08-05T00:30:03.165Z,39.23
2022-08-05T00:32:12.597Z,39.98
2022-08-05T00:34:56.798Z,40.00
2022-08-05T00:37:10.726Z,39.65
2022-08-05T00:39:03.901Z,40.21
2022-08-05T00:41:11.628Z,40.96
2022-08-05T00:43:15.339Z,41.85
2022-08-05T00:45:28.210Z,41.19
2022-08-05T00:47:56.817Z,41.44
2022-08-05T00:50:00.460Z,42.40
2022-08-05T00:52:03.276Z,41.91
2022-08-05T00:54:06.306Z,42.75
2022-08-05T00:56:09.457Z,42.42
2022-08-05T00:58:13.284Z,40.47
2022-08-05T01:00:16.931Z,41.65
2022-08-05T01:02:21.289Z,40.77
2022-08-05T01:04:30.212Z,41.46
2022-08-05T01:06:33.009Z,41.02
2022-08-05T01:08:43.081Z,41.11
2022-08-05T01:10:52.850Z,42.14
2022-08-05T01:13:05.389Z,41.60
2022-08-05T01:15:35.816Z,42.25
2022-08-05T01:17:46.669Z,41.01
2022-08-05T01:20:12.289Z,41.88
2022-08-05T01:22:28.905Z,42.14
2022-08-05T01:24:49.372Z,42.93
2022-08-05T01:27:19.060Z,43.54
2022-08-05T01:29:29.039Z,43.59
2022-08-05T01:31:42.745Z,45.03
2022-08-05T01:33:53.608Z,46.92
2022-08-05T01:36:00.217Z,46.39
2022-08-05T01:38:06.937Z,48.23
2022-08-05T01:40:12.386Z,46.59
2022-08-05T01:42:18.518Z,46.21
2022-08-05T01:44:24.757Z,44.94
2022-08-05T01:46:42.962Z,44.53
2022-08-05T01:48:51.202Z,46.81
2022-08-05T01:50:56.369Z,47.15
2022-08-05T01:53:02.711Z,44.49
2022-08-05T01:55:10.449Z,47.33
2022-08-05T01:58:11.162Z,48.93
2022-08-05T01:59:41.540Z,47.61
2022-08-05T02:01:54.799Z,47.17
2022-08-05T02:03:59.770Z,46.19
2022-08-05T02:06:33.576Z,48.49
2022-08-05T02:08:31.147Z,50.24
2022-08-05T02:10:42.818Z,49.12
2022-08-05T02:12:52.572Z,49.89
2022-08-05T02:15:05.510Z,50.17
2022-08-05T02:18:14.568Z,52.80
2022-08-05T02:19:47.656Z,52.84
2022-08-05T02:21:55.291Z,50.32
2022-08-05T02:24:03.016Z,50.46
2022-08-05T02:26:11.759Z,48.73
2022-08-05T02:28:16.023Z,48.66
2022-08-05T02:30:38.608Z,51.56
2022-08-05T02:33:00.355Z,50.51
2022-08-05T02:35:13.333Z,50.22
2022-08-05T02:37:18.412Z,49.99
2022-08-05T02:39:25.981Z,51.21
2022-08-05T02:41:36.355Z,56.13
2022-08-05T02:44:02.478Z,57.19
2022-08-05T02:46:16.831Z,57.38
2022-08-05T02:48:31.445Z,58.68
2022-08-05T02:50:36.068Z,58.36
2022-08-05T02:52:39.720Z,57.36
2022-08-05T02:54:50.752Z,57.55
2022-08-05T02:56:56.134Z,56.38
2022-08-05T02:59:00.790Z,54.50
2022-08-05T03:01:04.559Z,57.75
2022-08-05T03:03:10.535Z,58.82
2022-08-05T03:05:14.834Z,61.04
2022-08-05T03:07:24.722Z,62.64
2022-08-05T03:09:51.617Z,61.53
2022-08-05T03:11:58.014Z,60.73
2022-08-05T03:14:03.383Z,58.12
2022-08-05T03:16:07.657Z,57.95
2022-08-05T03:18:13.765Z,63.79
2022-08-05T03:20:20.268Z,63.26
2022-08-05T03:22:31.871Z,59.47
2022-08-05T03:24:35.513Z,58.38
2022-08-05T03:26:38.612Z,57.33
2022-08-05T03:28:41.422Z,57.41
2022-08-05T03:30:45.690Z,62.11
2022-08-05T03:32:50.437Z,66.21
2022-08-05T03:34:55.447Z,61.61
2022-08-05T03:36:58.263Z,59.78
2022-08-05T03:39:07.718Z,61.93
2022-08-05T03:41:11.096Z,69.22
2022-08-05T03:43:15.890Z,68.46
2022-08-05T03:45:57.403Z,69.37
2022-08-05T03:48:00.122Z,69.69
2022-08-05T03:50:04.648Z,68.69
2022-08-05T03:52:48.515Z,66.64
2022-08-05T03:56:01.098Z,65.10
2022-08-05T03:57:16.751Z,63.25
2022-08-05T03:59:24.780Z,63.23
2022-08-05T04:01:32.287Z,62.79
2022-08-05T04:03:38.094Z,65.80
2022-08-05T04:05:44.532Z,62.70
2022-08-05T04:07:58.004Z,66.24
2022-08-05T04:10:03.167Z,66.13
2022-08-05T04:12:23.587Z,65.48
2022-08-05T04:14:29.836Z,64.56
2022-08-05T04:16:35.382Z,63.76
2022-08-05T04:18:39.610Z,63.65
2022-08-05T04:20:44.057Z,64.45
2022-08-05T04:22:47.764Z,61.74
2022-08-05T04:24:52.616Z,63.62
2022-08-05T04:26:55.613Z,63.46
2022-08-05T04:29:07.106Z,63.49
2022-08-05T04:31:10.579Z,63.83
2022-08-05T04:33:14.027Z,64.96
2022-08-05T04:35:19.690Z,65.81
2022-08-05T04:38:01.429Z,65.64
2022-08-05T04:39:46.927Z,66.68
2022-08-05T04:41:55.997Z,66.25
2022-08-05T04:43:58.872Z,66.70
2022-08-05T04:46:04.062Z,69.15
2022-08-05T04:48:10.256Z,70.11
2022-08-05T04:50:34.469Z,69.84
2022-08-05T04:52:41.834Z,70.69
2022-08-05T04:54:49.466Z,70.55
2022-08-05T04:56:55.266Z,69.87
2022-08-05T04:59:00.252Z,71.46
2022-08-05T05:02:06.057Z,71.82
2022-08-05T05:03:45.913Z,72.84
2022-08-05T05:06:40.326Z,70.14
2022-08-05T05:08:26.558Z,70.68
2022-08-05T05:10:35.169Z,68.92
2022-08-05T05:12:37.950Z,69.78
2022-08-05T05:14:49.533Z,68.96
2022-08-05T05:16:54.568Z,69.07
2022-08-05T05:19:18.577Z,69.84
2022-08-05T05:21:20.257Z,70.58
2022-08-05T05:23:24.402Z,69.82
2022-08-05T05:25:32.776Z,68.75
2022-08-05T05:27:45.547Z,68.97
2022-08-05T05:30:04.416Z,69.06
2022-08-05T05:32:12.732Z,67.58
2022-08-05T05:34:26.602Z,69.03
2022-08-05T05:36:30.316Z,69.57
2022-08-05T05:38:35.708Z,69.70
2022-08-05T05:40:39.298Z,65.97
2022-08-05T05:42:47.015Z,68.44
2022-08-05T05:44:50.121Z,69.38
2022-08-05T05:46:52.937Z,69.32
2022-08-05T05:48:56.075Z,71.97
2022-08-05T05:50:58.872Z,71.20
2022-08-05T05:53:22.138Z,71.63
2022-08-05T05:55:52.429Z,71.92
2022-08-05T05:57:52.626Z,72.47
2022-08-05T05:59:56.044Z,73.96
2022-08-05T06:01:59.822Z,75.79
2022-08-05T06:04:03.879Z,75.93
2022-08-05T06:06:07.346Z,74.64
2022-08-05T06:08:10.540Z,75.01
2022-08-05T06:10:14.514Z,74.11
2022-08-05T06:12:20.047Z,73.82
2022-08-05T06:14:22.896Z,72.86
2022-08-05T06:16:32.715Z,73.14
2022-08-05T06:18:39.869Z,70.09
2022-08-05T06:20:42.648Z,68.79
2022-08-05T06:22:51.231Z,69.17
2022-08-05T06:24:54.315Z,68.62
2022-08-05T06:26:58.481Z,67.47
2022-08-05T06:29:03.670Z,67.48
2022-08-05T06:31:11.184Z,66.70
2022-08-05T06:33:21.413Z,66.41
2022-08-05T06:36:06.807Z,65.49
2022-08-05T06:38:11.339Z,65.27
2022-08-05T06:40:20.731Z,64.86
2022-08-05T06:42:24.164Z,64.97
2022-08-05T06:44:30.139Z,62.06
2022-08-05T06:46:33.343Z,61.76
2022-08-05T06:48:55.273Z,63.31
2022-08-05T06:51:00.420Z,62.83
2022-08-05T06:53:03.768Z,63.15
2022-08-05T06:55:14.597Z,61.80
2022-08-05T06:57:58.140Z,61.34
2022-08-05T06:59:42.540Z,62.74
2022-08-05T07:01:59.241Z,62.46
2022-08-05T07:04:03.159Z,60.63
2022-08-05T07:06:14.184Z,60.23
2022-08-05T07:08:18.078Z,60.97
2022-08-05T07:10:21.909Z,59.60
2022-08-05T07:12:53.694Z,58.01
2022-08-05T07:15:34.208Z,58.25
2022-08-05T07:18:01.237Z,59.22
2022-08-05T07:20:32.039Z,57.51
2022-08-05T07:22:29.151Z,53.66
2022-08-05T07:24:35.052Z,53.29
2022-08-05T07:26:47.340Z,53.77
2022-08-05T07:28:51.456Z,53.65
2022-08-05T07:30:55.610Z,53.96
2022-08-05T07:32:58.621Z,54.20
2022-08-05T07:35:01.450Z,54.12
2022-08-05T07:37:24.458Z,53.69
2022-08-05T07:40:04.191Z,53.45
2022-08-05T07:42:13.932Z,53.04
2022-08-05T07:44:19.039Z,51.79
2022-08-05T07:46:25.137Z,50.79
2022-08-05T07:49:01.878Z,51.11
2022-08-05T07:50:51.563Z,51.42
2022-08-05T07:52:54.442Z,50.36
2022-08-05T07:54:57.562Z,49.75
2022-08-05T07:57:22.860Z,49.49
2022-08-05T07:59:38.908Z,50.19
2022-08-05T08:01:52.128Z,50.88
2022-08-05T08:04:00.333Z,51.19
2022-08-05T08:06:04.612Z,50.26
2022-08-05T08:08:12.253Z,51.12
2022-08-05T08:10:15.461Z,49.62
2022-08-05T08:12:37.350Z,50.73
2022-08-05T08:14:42.695Z,50.50
2022-08-05T08:16:53.639Z,49.41
2022-08-05T08:18:56.719Z,49.34
2022-08-05T08:21:03.833Z,48.27
2022-08-05T08:23:07.522Z,47.57
2022-08-05T08:26:00.108Z,49.08
2022-08-05T08:27:54.091Z,47.75
2022-08-05T08:30:05.066Z,48.11
2022-08-05T08:32:27.897Z,46.61
2022-08-05T08:34:33.259Z,45.84
2022-08-05T08:36:47.611Z,46.86
2022-08-05T08:38:56.115Z,45.98
2022-08-05T08:41:01.524Z,45.62
2022-08-05T08:44:56.416Z,44.80
2022-08-05T08:45:29.944Z,44.91
2022-08-05T08:48:05.481Z,45.40
2022-08-05T08:50:13.032Z,46.94
2022-08-05T08:52:26.524Z,45.76
2022-08-05T08:54:29.683Z,44.65
2022-08-05T08:56:33.326Z,43.80
2022-08-05T08:58:44.672Z,42.57
2022-08-05T09:00:51.520Z,42.19
2022-08-05T09:02:56.619Z,42.92
2022-08-05T09:05:17.917Z,42.46
2022-08-05T09:07:28.779Z,41.55
2022-08-05T09:09:35.474Z,41.20
2022-08-05T09:11:52.649Z,40.75
2022-08-05T09:14:09.264Z,40.20
2022-08-05T09:16:21.328Z,38.96
2022-08-05T09:18:31.435Z,39.08
2022-08-05T09:20:36.327Z,39.54
2022-08-05T09:23:07.778Z,40.07
2022-08-05T09:25:13.869Z,38.72
2022-08-05T09:28:04.480Z,37.39
2022-08-05T09:30:02.255Z,37.65
2022-08-05T09:32:43.021Z,37.50
2022-08-05T09:34:49.301Z,36.85
2022-08-05T09:36:54.944Z,37.70
2022-08-05T09:39:01.326Z,38.72
2022-08-05T09:41:07.269Z,38.99
2022-08-05T09:43:28.045Z,37.92
2022-08-05T09:46:07.604Z,36.71
2022-08-05T09:48:21.060Z,36.31
2022-08-05T09:50:38.814Z,35.89
2022-08-05T09:52:48.418Z,35.42
2022-08-05T09:54:58.775Z,34.94
2022-08-05T09:57:02.037Z,34.63
2022-08-05T09:59:07.049Z,34.74
2022-08-05T10:01:15.613Z,34.70
2022-08-05T10:03:51.825Z,34.89
2022-08-05T10:06:15.682Z,34.98
2022-08-05T10:08:37.769Z,35.26
2022-08-05T10:10:54.552Z,35.66
2022-08-05T10:13:00.152Z,35.38
2022-08-05T10:15:20.854Z,34.40
2022-08-05T10:17:37.366Z,33.67
2022-08-05T10:20:03.796Z,33.30
2022-08-05T10:22:09.106Z,32.77
2022-08-05T10:24:19.761Z,32.04
2022-08-05T10:26:32.619Z,32.32
2022-08-05T10:28:50.897Z,32.08
2022-08-05T10:32:47.817Z,32.03
2022-08-05T10:33:28.824Z,32.94
2022-08-05T10:35:33.782Z,32.27
2022-08-05T10:37:45.808Z,31.81
2022-08-05T10:40:03.116Z,31.82
2022-08-05T10:42:33.402Z,32.15
2022-08-05T10:44:39.170Z,31.61
2022-08-05T10:46:47.012Z,31.67
2022-08-05T10:49:02.699Z,30.83
2022-08-05T10:51:22.009Z,30.66
2022-08-05T10:53:54.911Z,30.50
2022-08-05T10:56:14.906Z,30.26
2022-08-05T10:58:36.015Z,30.84
2022-08-05T11:00:55.425Z,30.39
2022-08-05T11:03:23.251Z,29.76
2022-08-05T11:05:31.560Z,29.21
2022-08-05T11:08:02.605Z,28.77
2022-08-05T11:10:04.131Z,30.08
2022-08-05T11:12:45.351Z,30.30
2022-08-05T11:15:19.842Z,28.85
2022-08-05T11:17:57.171Z,27.68
2022-08-05T11:20:11.436Z,27.82
2022-08-05T11:22:42.764Z,27.42
2022-08-05T11:24:50.763Z,27.96
2022-08-05T11:27:50.886Z,27.65
2022-08-05T11:30:00.828Z,27.74
2022-08-05T11:32:26.371Z,28.73
2022-08-05T11:34:47.202Z,29.63
2022-08-05T11:36:55.047Z,28.89
2022-08-05T11:38:59.858Z,29.25
2022-08-05T11:41:34.314Z,29.25
2022-08-05T11:44:00.890Z,27.90
2022-08-05T11:46:27.191Z,26.90
2022-08-05T11:48:14.730Z,27.05
2022-08-05T11:50:17.827Z,26.42
2022-08-05T11:52:29.264Z,26.94
2022-08-05T11:54:34.989Z,27.09
2022-08-05T11:56:50.291Z,26.46
2022-08-05T11:58:56.304Z,26.24
2022-08-05T12:01:03.474Z,26.49
2022-08-05T12:03:29.650Z,26.36
2022-08-05T12:05:39.818Z,25.78
2022-08-05T12:08:07.814Z,25.43
2022-08-05T12:10:13.741Z,24.91
2022-08-05T12:12:23.258Z,24.53
2022-08-05T12:14:39.309Z,24.44
2022-08-05T12:16:48.285Z,24.24
2022-08-05T12:18:53.109Z,24.11
2022-08-05T12:20:56.798Z,24.38
2022-08-05T12:23:09.491Z,23.96
2022-08-05T12:25:14.206Z,24.02
2022-08-05T12:27:32.886Z,23.69
2022-08-05T12:29:39.079Z,24.69
2022-08-05T12:31:52.984Z,25.38
2022-08-05T12:33:57.344Z,24.91
2022-08-05T12:36:02.294Z,25.16
2022-08-05T12:38:07.347Z,24.90
2022-08-05T12:40:26.533Z,24.34
2022-08-05T12:42:32.059Z,24.61
2022-08-05T12:44:35.216Z,23.73
2022-08-05T12:46:39.230Z,24.02
2022-08-05T12:48:43.499Z,25.08
2022-08-05T12:51:21.838Z,24.96
2022-08-05T12:53:37.038Z,24.42
2022-08-05T12:55:42.360Z,24.09
2022-08-05T12:58:38.657Z,24.14
2022-08-05T13:02:02.844Z,22.89
2022-08-05T13:02:44.096Z,22.81
2022-08-05T13:04:56.337Z,22.66
2022-08-05T13:07:01.097Z,22.90
2022-08-05T13:09:08.745Z,22.41
2022-08-05T13:12:01.139Z,22.29
2022-08-05T13:14:06.133Z,22.04
2022-08-05T13:16:12.548Z,22.91
2022-08-05T13:18:19.741Z,23.75
2022-08-05T13:20:34.181Z,23.63
2022-08-05T13:22:39.076Z,24.19
2022-08-05T13:24:57.556Z,24.48
2022-08-05T13:27:01.193Z,24.79
2022-08-05T13:29:05.143Z,24.73
2022-08-05T13:31:11.158Z,24.78
2022-08-05T13:34:22.453Z,24.17
2022-08-05T13:35:47.531Z,23.95
2022-08-05T13:37:55.758Z,23.65
2022-08-05T13:40:16.699Z,23.72
2022-08-05T13:42:22.532Z,22.94
2022-08-05T13:44:27.990Z,22.24
2022-08-05T13:46:50.941Z,22.97
2022-08-05T13:48:57.716Z,24.02
2022-08-05T13:51:08.461Z,24.91
2022-08-05T13:53:15.737Z,26.74
2022-08-05T13:55:41.864Z,26.79
2022-08-05T13:57:48.531Z,28.02
2022-08-05T13:59:55.424Z,27.28
2022-08-05T14:02:01.335Z,27.41
2022-08-05T14:04:22.349Z,27.82
2022-08-05T14:06:30.899Z,27.65
2022-08-05T14:08:33.745Z,29.95
2022-08-05T14:10:38.785Z,30.98
2022-08-05T14:12:48.630Z,30.04
2022-08-05T14:14:52.165Z,30.33
2022-08-05T14:16:55.373Z,30.96
2022-08-05T14:19:04.483Z,32.12
2022-08-05T14:22:07.517Z,33.00
2022-08-05T14:23:36.353Z,34.95
2022-08-05T14:25:44.957Z,43.59
2022-08-05T14:27:49.373Z,44.56
2022-08-05T14:29:52.227Z,51.01
2022-08-05T14:32:13.025Z,78.12
2022-08-05T14:34:17.880Z,69.39
2022-08-05T14:36:26.560Z,93.85
2022-08-05T14:38:34.061Z,100.00
2022-08-05T14:40:38.903Z,100.00
2022-08-05T14:42:42.361Z,100.00
2022-08-05T14:44:45.818Z,100.00
2022-08-05T14:46:48.585Z,100.00
2022-08-05T14:48:51.710Z,100.00
2022-08-05T14:50:55.810Z,100.00
2022-08-05T14:53:00.229Z,100.00
2022-08-05T14:55:06.386Z,71.31
2022-08-05T14:57:13.464Z,81.23
2022-08-05T14:59:16.850Z,89.36
2022-08-05T15:01:24.179Z,89.45
2022-08-05T15:03:42.379Z,88.76
2022-08-05T15:06:07.049Z,92.86
2022-08-05T15:08:17.930Z,83.26
2022-08-05T15:10:34.923Z,79.24
2022-08-05T15:12:58.017Z,79.66
2022-08-05T15:15:00.673Z,83.56
2022-08-05T15:17:04.842Z,81.93
2022-08-05T15:19:07.727Z,80.25
2022-08-05T15:21:26.069Z,73.99
2022-08-05T15:23:33.259Z,71.81
2022-08-05T15:25:51.637Z,69.59
2022-08-05T15:27:56.656Z,64.92
2022-08-05T15:29:59.469Z,62.73
2022-08-05T15:32:03.285Z,60.84
2022-08-05T15:34:31.952Z,56.00
2022-08-05T15:36:29.634Z,54.63
2022-08-05T15:38:40.840Z,54.92
2022-08-05T15:41:03.466Z,61.60
2022-08-05T15:43:19.758Z,56.25
2022-08-05T15:45:38.896Z,60.97
2022-08-05T15:47:43.703Z,61.22
2022-08-05T15:49:56.605Z,54.54
2022-08-05T15:52:13.444Z,47.09
2022-08-05T15:54:19.305Z,45.85
2022-08-05T15:56:23.842Z,46.21
2022-08-05T15:58:28.652Z,50.71
2022-08-05T16:00:50.920Z,50.85
2022-08-05T16:02:54.594Z,53.28
2022-08-05T16:04:57.767Z,48.43
2022-08-05T16:07:00.605Z,49.83
2022-08-05T16:09:04.155Z,51.70
2022-08-05T16:11:07.323Z,51.75
2022-08-05T16:13:12.349Z,52.23
2022-08-05T16:15:22.559Z,50.42
2022-08-05T16:17:25.612Z,53.31
2022-08-05T16:20:03.062Z,54.16
2022-08-05T16:22:00.360Z,58.20
2022-08-05T16:24:04.361Z,59.52
2022-08-05T16:26:12.006Z,59.74
2022-08-05T16:28:17.938Z,56.68
2022-08-05T16:30:26.038Z,56.88
2022-08-05T16:32:29.921Z,57.33
2022-08-05T16:34:33.043Z,59.02
2022-08-05T16:36:36.304Z,59.09
2022-08-05T16:38:54.704Z,59.58
2022-08-05T16:41:01.427Z,58.38
2022-08-05T16:43:04.494Z,60.41
2022-08-05T16:46:04.153Z,60.68
2022-08-05T16:47:40.839Z,60.65
2022-08-05T16:49:56.650Z,64.19
2022-08-05T16:51:59.471Z,64.21
2022-08-05T16:54:16.119Z,63.11
2022-08-05T16:56:21.888Z,60.86
2022-08-05T16:58:26.153Z,59.08
2022-08-05T17:00:34.471Z,60.70
2022-08-05T17:02:38.016Z,60.73
2022-08-05T17:04:40.840Z,62.31
2022-08-05T17:06:43.759Z,61.43
2022-08-05T17:08:56.030Z,62.18
2022-08-05T17:11:00.449Z,63.64
2022-08-05T17:13:03.558Z,66.42
2022-08-05T17:15:07.598Z,67.53
2022-08-05T17:17:14.811Z,66.36
2022-08-05T17:19:18.232Z,67.12
2022-08-05T17:21:21.094Z,68.33
2022-08-05T17:24:03.113Z,68.75
2022-08-05T17:25:49.557Z,68.98
2022-08-05T17:27:54.641Z,68.31
2022-08-05T17:29:59.737Z,68.28
2022-08-05T17:32:03.641Z,69.64
2022-08-05T17:34:08.774Z,67.78
2022-08-05T17:36:32.799Z,69.10
2022-08-05T17:38:35.017Z,69.17
2022-08-05T17:40:38.352Z,70.87
2022-08-05T17:42:50.480Z,68.21
2022-08-05T17:44:54.430Z,68.77
2022-08-05T17:46:57.300Z,67.70
2022-08-05T17:49:00.282Z,71.94
2022-08-05T17:51:08.966Z,73.31
2022-08-05T17:53:12.154Z,75.99
2022-08-05T17:55:15.137Z,77.42
2022-08-05T17:57:18.520Z,77.56
2022-08-05T17:59:22.638Z,76.15
2022-08-05T18:01:26.439Z,76.25
2022-08-05T18:03:59.024Z,76.88
2022-08-05T18:06:01.960Z,77.63
2022-08-05T18:08:06.665Z,78.25
2022-08-05T18:10:20.363Z,77.72
2022-08-05T18:12:24.710Z,80.04
2022-08-05T18:14:27.830Z,81.93
2022-08-05T18:16:31.624Z,80.46
2022-08-05T18:18:39.612Z,83.62
2022-08-05T18:20:42.783Z,82.48
2022-08-05T18:22:54.765Z,85.00
2022-08-05T18:25:01.469Z,86.40
2022-08-05T18:27:04.368Z,89.34
2022-08-05T18:29:16.758Z,89.69
2022-08-05T18:31:19.977Z,92.71
2022-08-05T18:33:24.174Z,92.62
2022-08-05T18:35:49.479Z,92.04
2022-08-05T18:37:49.915Z,97.57
2022-08-05T18:41:50.740Z,96.93
2022-08-05T18:42:22.725Z,97.87
2022-08-05T18:44:35.133Z,98.39
2022-08-05T18:46:50.584Z,100.00
2022-08-05T18:48:53.647Z,98.65
2022-08-05T18:52:04.668Z,100.00
2022-08-05T18:53:43.105Z,100.00
2022-08-05T18:55:48.768Z,100.00
2022-08-05T18:57:54.017Z,99.38
2022-08-05T19:00:13.252Z,96.51
2022-08-05T19:02:28.210Z,97.01
2022-08-05T19:04:32.911Z,100.00
2022-08-05T19:06:44.611Z,97.42
2022-08-05T19:08:48.397Z,99.72
2022-08-05T19:10:51.914Z,99.64
2022-08-05T19:12:56.052Z,100.00
2022-08-05T19:15:00.722Z,100.00
2022-08-05T19:17:06.421Z,100.00
2022-08-05T19:19:10.661Z,100.00
2022-08-05T19:21:15.843Z,100.00
2022-08-05T19:24:04.397Z,97.80
2022-08-05T19:25:43.452Z,97.47
2022-08-05T19:27:46.656Z,96.14
2022-08-05T19:29:53.962Z,95.80
2022-08-05T19:31:59.281Z,98.11
2022-08-05T19:34:02.115Z,97.20
2022-08-05T19:36:06.140Z,98.39
2022-08-05T19:38:09.601Z,97.62
2022-08-05T19:40:12.754Z,97.74
2022-08-05T19:42:18.348Z,97.91
2022-08-05T19:44:45.141Z,98.81
2022-08-05T19:46:50.653Z,99.71
2022-08-05T19:48:53.414Z,100.00
2022-08-05T19:50:56.950Z,100.00
2022-08-05T19:53:09.332Z,100.00
2022-08-05T19:56:15.203Z,98.89
2022-08-05T19:57:49.145Z,95.99
2022-08-05T20:00:02.504Z,98.73
2022-08-05T20:02:17.623Z,100.00
2022-08-05T20:04:20.657Z,100.00
2022-08-05T20:06:29.025Z,100.00
2022-08-05T20:08:32.331Z,100.00
2022-08-05T20:10:35.747Z,100.00
2022-08-05T20:12:39.728Z,100.00
2022-08-05T20:14:52.518Z,99.41
2022-08-05T20:16:58.451Z,97.67
2022-08-05T20:19:03.049Z,95.90
2022-08-05T20:21:07.231Z,98.00
2022-08-05T20:23:10.040Z,100.00
2022-08-05T20:25:15.257Z,99.82
2022-08-05T20:27:18.669Z,98.29
2022-08-05T20:29:27.292Z,98.00
2022-08-05T20:31:43.112Z,92.50
2022-08-05T20:33:54.212Z,94.43
2022-08-05T20:35:58.415Z,96.87
2022-08-05T20:38:07.648Z,93.61
2022-08-05T20:40:12.535Z,92.98
2022-08-05T20:42:15.707Z,93.36
2022-08-05T20:44:29.922Z,88.82
2022-08-05T20:46:33.683Z,94.33
2022-08-05T20:48:36.919Z,95.43
2022-08-05T20:50:42.568Z,94.77
2022-08-05T20:52:49.709Z,92.28
2022-08-05T20:55:15.828Z,91.02
2022-08-05T20:57:24.728Z,91.59
2022-08-05T21:00:10.549Z,95.34
2022-08-05T21:02:03.951Z,98.74
2022-08-05T21:04:07.202Z,99.60
2022-08-05T21:06:27.673Z,100.00
2022-08-05T21:08:41.780Z,99.82
2022-08-05T21:10:48.539Z,100.00
2022-08-05T21:13:09.006Z,100.00
2022-08-05T21:15:15.174Z,100.00
2022-08-05T21:17:17.978Z,100.00
2022-08-05T21:19:24.257Z,100.00
2022-08-05T21:21:27.050Z,100.00
2022-08-05T21:23:47.810Z,100.00
2022-08-05T21:25:51.613Z,100.00
2022-08-05T21:27:58.178Z,100.00
2022-08-05T21:30:01.768Z,100.00
2022-08-05T21:32:05.515Z,100.00
2022-08-05T21:34:08.333Z,100.00
2022-08-05T21:36:13.548Z,100.00
2022-08-05T21:38:22.258Z,100.00
2022-08-05T21:40:26.906Z,100.00
2022-08-05T21:42:31.017Z,100.00
2022-08-05T21:44:47.244Z,100.00
2022-08-05T21:46:50.025Z,100.00
2022-08-05T21:48:56.749Z,100.00
2022-08-05T21:50:59.751Z,100.00
2022-08-05T21:53:04.518Z,100.00
2022-08-05T21:55:11.524Z,100.00
2022-08-05T21:57:33.275Z,100.00
2022-08-05T22:00:01.653Z,98.93
2022-08-05T22:01:59.323Z,97.73
2022-08-05T22:04:02.173Z,96.97
2022-08-05T22:06:06.244Z,93.93
2022-08-05T22:08:22.125Z,93.72
2022-08-05T22:10:27.480Z,92.53
2022-08-05T22:12:32.090Z,91.70
2022-08-05T22:14:37.960Z,92.24
2022-08-05T22:16:51.154Z,91.28
2022-08-05T22:18:58.720Z,96.11
2022-08-05T22:21:04.190Z,96.32
2022-08-05T22:24:02.953Z,99.07
2022-08-05T22:26:10.246Z,100.00
2022-08-05T22:28:15.766Z,95.59
2022-08-05T22:30:21.117Z,99.53
2022-08-05T22:32:24.401Z,100.00
2022-08-05T22:34:30.135Z,100.00
2022-08-05T22:36:33.040Z,99.82
2022-08-05T22:38:35.903Z,98.43
2022-08-05T22:40:40.415Z,94.26
2022-08-05T22:42:53.028Z,92.69
2022-08-05T22:45:02.005Z,90.90
2022-08-05T22:47:06.570Z,94.94
2022-08-05T22:49:12.345Z,90.62
2022-08-05T22:52:06.060Z,93.04
2022-08-05T22:53:56.217Z,93.73
2022-08-05T22:55:59.291Z,95.74
2022-08-05T22:58:02.190Z,92.93
2022-08-05T23:00:08.850Z,89.16
2022-08-05T23:02:13.616Z,93.67
2022-08-05T23:04:19.786Z,94.17
2022-08-05T23:06:22.617Z,93.84
2022-08-05T23:08:29.304Z,93.12
2022-08-05T23:10:32.455Z,91.54
2022-08-05T23:12:35.228Z,92.43
2022-08-05T23:14:39.629Z,94.33
2022-08-05T23:17:05.385Z,92.45
2022-08-05T23:19:08.583Z,88.90
2022-08-05T23:21:11.612Z,90.62
2022-08-05T23:23:19.323Z,86.19
2022-08-05T23:25:53.156Z,88.27
2022-08-05T23:28:00.443Z,85.96
2022-08-05T23:30:04.311Z,84.41
2022-08-05T23:32:12.772Z,84.65
2022-08-05T23:34:24.749Z,81.03
2022-08-05T23:36:28.485Z,83.18
2022-08-05T23:38:42.838Z,82.01
2022-08-05T23:40:49.511Z,79.92
2022-08-05T23:42:53.936Z,78.53
2022-08-05T23:44:57.077Z,79.14
2022-08-05T23:47:02.499Z,79.46
2022-08-05T23:49:23.660Z,78.64
2022-08-05T23:51:28.226Z,78.37
2022-08-05T23:53:46.422Z,73.50
2022-08-05T23:55:49.887Z,70.30
2022-08-05T23:57:53.361Z,68.00
